Time;durP1;ratioP1;P1;durP2;ratioP2;P2;SDS_P1;SDS_P2;PMS_P1;PMS_P2;Temp;Humidity;BMP_temperature;BMP_pressure;BME280_temperature;BME280_humidity;BME280_pressure;Samples;Min_cycle;Max_cycle;Signal;HPM_P1;HPM_P2
2022/05/24 08:57:10;;;;;;;21.52;3.22;;;;;;;23.73;75.31;99810.25;5106662;27;1322350;-69
2022/05/24 08:59:50;;;;;;;33.67;4.60;;;;;;;23.45;76.67;99836.88;5129565;27;20043;-68
2022/05/24 09:02:15;;;;;;;81.38;8.55;;;;;;;23.98;75.21;99827.97;5129101;27;20027;-69
2022/05/24 09:04:40;;;;;;;4.00;2.60;;;;;;;23.83;75.39;99821.47;5129173;28;20092;-69
2022/05/24 09:07:18;;;;;;;3.38;2.35;;;;;;;24.03;74.90;99824.06;5127815;28;20110;-69
2022/05/24 09:09:49;;;;;;;6.45;2.45;;;;;;;24.93;71.72;99824.78;5129081;28;20084;-69
2022/05/24 09:12:28;;;;;;;6.45;3.00;;;;;;;25.28;71.67;99824.16;5129369;28;20034;-68
2022/05/24 09:18:57;;;;;;;5.45;2.53;;;;;;;25.31;70.19;99822.13;5129344;28;20087;-68
2022/05/24 09:21:31;;;;;;;4.15;2.50;;;;;;;25.63;68.66;99814.78;5101012;27;20471;-69
2022/05/24 09:24:17;;;;;;;3.15;2.70;;;;;;;25.08;70.19;99831.19;5129219;27;20084;-68
2022/05/24 09:27:16;;;;;;;6.78;2.70;;;;;;;25.51;70.22;99802.09;5129138;27;20485;-69
2022/05/24 09:29:59;;;;;;;4.88;2.75;;;;;;;25.04;70.84;99829.03;5129008;27;20035;-68
2022/05/24 09:32:34;;;;;;;7.03;2.70;;;;;;;24.93;72.00;99820.41;5129064;27;20069;-68
2022/05/24 09:35:01;;;;;;;4.40;2.38;;;;;;;25.00;73.21;99789.41;5117781;27;20035;-69
2022/05/24 09:37:27;;;;;;;4.07;2.60;;;;;;;26.58;68.74;99815.28;5127340;28;20519;-69
2022/05/24 09:40:01;;;;;;;7.20;3.13;;;;;;;26.01;69.48;99776.53;5127666;27;20031;-69
2022/05/24 09:42:31;;;;;;;5.10;2.55;;;;;;;26.16;68.95;99806.38;5128272;27;20030;-69
2022/05/24 09:45:18;;;;;;;2.95;2.17;;;;;;;25.60;68.36;99777.78;5128470;27;20468;-70
2022/05/24 09:47:43;;;;;;;5.75;2.85;;;;;;;25.42;72.76;99813.34;5128095;27;20118;-70
2022/05/24 09:50:16;;;;;;;3.22;2.20;;;;;;;25.42;71.01;99814.19;5128109;27;20529;-69
2022/05/24 09:53:02;;;;;;;6.60;2.33;;;;;;;26.11;68.90;99809.41;5127832;27;20485;-70
2022/05/24 09:55:48;;;;;;;4.28;2.88;;;;;;;26.82;67.71;99817.34;5126454;28;20055;-69
2022/05/24 09:58:38;;;;;;;7.18;2.70;;;;;;;26.14;66.85;99808.28;5127051;28;20047;-69
2022/05/24 10:01:09;;;;;;;2.67;2.38;;;;;;;25.92;68.49;99782.59;5126352;28;20027;-70
2022/05/24 10:03:37;;;;;;;5.60;2.75;;;;;;;26.28;68.86;99805.19;5126594;28;20417;-70
2022/05/24 10:06:21;;;;;;;4.60;2.65;;;;;;;25.03;70.39;99804.78;5127833;28;20027;-69
2022/05/24 10:08:49;;;;;;;3.92;3.17;;;;;;;25.04;72.23;99795.19;5107619;28;20012;-68
2022/05/24 10:11:38;;;;;;;5.70;2.45;;;;;;;24.83;73.23;99775.34;5113105;28;20028;-68
2022/05/24 10:14:22;;;;;;;5.65;2.38;;;;;;;25.22;72.39;99793.50;5114367;28;20024;-69
2022/05/24 10:17:01;;;;;;;7.13;2.78;;;;;;;25.81;72.74;99767.16;5114217;28;20027;-68
2022/05/24 10:19:57;;;;;;;6.63;2.65;;;;;;;25.49;72.19;99804.03;5114344;28;20114;-68
2022/05/24 10:22:29;;;;;;;4.22;2.58;;;;;;;26.40;69.94;99783.16;5095710;28;20112;-68
2022/05/24 10:25:26;;;;;;;4.03;2.47;;;;;;;26.02;69.11;99806.81;5105241;28;20028;-67
2022/05/24 10:28:10;;;;;;;13.48;3.30;;;;;;;26.89;67.07;99807.91;5092533;28;20039;-69
2022/05/24 10:31:11;;;;;;;6.22;2.53;;;;;;;26.88;65.68;99816.72;5104329;28;20041;-68
2022/05/24 10:39:43;;;;;;;5.40;2.70;;;;;;;26.52;66.40;99808.06;5112010;28;20508;-66
2022/05/24 10:42:38;;;;;;;5.88;2.47;;;;;;;27.80;65.54;99808.22;5109604;28;20035;-67
2022/05/24 10:45:10;;;;;;;6.30;2.50;;;;;;;25.61;66.63;99808.91;5091141;28;20035;-69
2022/05/24 10:47:57;;;;;;;4.25;2.47;;;;;;;25.86;70.18;99815.25;5090246;28;20028;-68
2022/05/24 10:50:46;;;;;;;4.35;2.60;;;;;;;26.87;68.38;99797.63;5092655;28;20031;-68
2022/05/24 10:53:32;;;;;;;7.22;2.97;;;;;;;26.56;68.68;99793.75;5091631;28;20146;-68
2022/05/24 10:56:08;;;;;;;5.80;2.60;;;;;;;25.60;70.99;99777.78;5092161;28;20055;-67
2022/05/24 10:58:38;;;;;;;8.25;3.13;;;;;;;26.20;70.17;99772.03;5092612;28;20482;-68
2022/05/24 11:01:11;;;;;;;10.23;2.83;;;;;;;26.12;70.95;99760.69;5092627;28;20032;-68
2022/05/24 11:03:44;;;;;;;4.63;2.80;;;;;;;26.73;69.53;99743.38;5092829;28;20169;-68
2022/05/24 11:06:23;;;;;;;4.90;2.90;;;;;;;27.25;69.62;99765.94;5092695;28;20032;-68
2022/05/24 11:09:17;;;;;;;3.92;2.70;;;;;;;28.36;65.75;99744.84;5096727;28;20081;-68
2022/05/24 11:12:09;;;;;;;4.30;2.75;;;;;;;27.13;64.76;99711.50;5110142;28;20036;-71
2022/05/24 11:14:37;;;;;;;;;;;;;;;26.26;68.19;99745.38;5111829;28;20130;-67
2022/05/24 11:17:03;;;;;;;5.50;2.53;;;;;;;25.86;69.89;99710.22;5112516;28;19911;-67
2022/05/24 11:19:36;;;;;;;6.10;2.67;;;;;;;27.11;66.62;99734.34;5111749;28;20028;-67
2022/05/24 11:22:22;;;;;;;4.40;2.38;;;;;;;26.82;67.98;99705.91;5112760;28;20155;-67
2022/05/24 11:25:25;;;;;;;6.97;2.60;;;;;;;26.15;68.27;99735.16;5112664;28;20032;-67
2022/05/24 11:28:03;;;;;;;6.65;2.97;;;;;;;25.49;69.02;99697.25;5112504;28;20558;-67
2022/05/24 11:30:28;;;;;;;5.53;2.85;;;;;;;26.05;68.97;99736.16;5112211;28;20023;-68
2022/05/24 11:33:05;;;;;;;5.40;2.72;;;;;;;25.31;70.89;99718.00;5112542;28;20080;-69
2022/05/24 11:35:43;;;;;;;5.35;2.42;;;;;;;25.20;71.97;99719.94;5112402;28;20123;-66
2022/05/24 11:38:28;;;;;;;4.95;2.55;;;;;;;25.56;71.98;99698.31;5112275;28;20027;-67
2022/05/24 11:40:56;;;;;;;3.42;2.40;;;;;;;26.11;72.15;99673.84;5112064;28;20100;-67
2022/05/24 11:43:43;;;;;;;5.90;2.80;;;;;;;25.99;69.45;99679.41;5112220;28;20084;-67
2022/05/24 11:46:33;;;;;;;5.93;2.70;;;;;;;25.48;71.80;99683.41;5112041;28;20104;-67
2022/05/24 11:49:04;;;;;;;4.35;2.75;;;;;;;25.36;73.04;99700.16;5112301;28;20028;-68
2022/05/24 11:51:33;;;;;;;4.32;2.50;;;;;;;25.20;74.47;99699.09;5110944;28;20130;-67
2022/05/24 11:54:00;;;;;;;3.75;2.50;;;;;;;24.96;75.05;99676.19;5112296;28;20039;-67
2022/05/24 11:56:27;;;;;;;4.55;3.05;;;;;;;25.30;73.79;99674.69;5112157;28;20047;-66
2022/05/24 11:59:03;;;;;;;10.73;2.80;;;;;;;24.97;75.75;99685.63;5112226;28;20039;-67
2022/05/24 12:01:39;;;;;;;4.80;2.53;;;;;;;24.44;79.57;99729.50;5112071;28;20027;-67
2022/05/24 12:10:04;;;;;;;9.50;4.07;;;;;;;24.48;85.40;99875.63;5111887;28;20058;-67
2022/05/24 12:12:36;;;;;;;10.45;3.40;;;;;;;24.17;91.88;99936.38;5111806;28;20118;-68
2022/05/24 12:15:24;;;;;;;20.38;5.60;;;;;;;22.58;100.00;99962.34;4750901;28;10000535;-66
2022/05/24 12:17:57;;;;;;;23.58;7.25;;;;;;;21.11;100.00;99901.91;5090972;28;20043;-68
2022/05/24 12:20:34;;;;;;;16.38;8.05;;;;;;;20.86;100.00;99941.56;5089910;28;20434;-71
2022/05/24 12:23:15;;;;;;;18.90;9.30;;;;;;;20.83;100.00;99992.66;5091325;28;20027;-67
2022/05/24 12:26:03;;;;;;;15.25;10.68;;;;;;;19.83;100.00;99966.75;5091323;28;20441;-72
2022/05/24 12:28:37;;;;;;;12.85;8.57;;;;;;;20.24;100.00;99989.88;5105799;28;20031;-67
2022/05/24 12:31:17;;;;;;;11.38;8.35;;;;;;;20.37;100.00;99962.25;5104773;28;20409;-69
2022/05/24 12:33:49;;;;;;;14.38;10.18;;;;;;;20.13;100.00;99920.00;5106942;28;20486;-65
2022/05/24 12:36:20;;;;;;;10.57;7.93;;;;;;;19.67;100.00;99883.56;5107901;28;20023;-67
2022/05/24 12:39:11;;;;;;;12.60;8.50;;;;;;;19.33;100.00;99805.97;5107136;28;20065;-65
2022/05/24 12:41:36;;;;;;;10.85;9.07;;;;;;;19.73;100.00;99758.47;5106697;28;20044;-65
2022/05/24 12:44:14;;;;;;;11.32;8.82;;;;;;;19.76;100.00;99737.63;5107921;28;20034;-68
2022/05/24 12:46:42;;;;;;;12.68;10.90;;;;;;;19.28;100.00;99713.41;5108758;28;20042;-68
2022/05/24 12:49:18;;;;;;;11.95;10.65;;;;;;;18.93;100.00;99717.53;5108119;28;20054;-70
2022/05/24 12:51:44;;;;;;;11.95;9.40;;;;;;;19.11;100.00;99736.94;5108934;28;20081;-69
2022/05/24 12:54:17;;;;;;;10.23;8.98;;;;;;;19.82;100.00;99663.22;5108192;28;20040;-71
2022/05/24 12:57:12;;;;;;;12.45;9.50;;;;;;;20.09;100.00;99691.38;5106438;28;20048;-67
2022/05/24 12:59:40;;;;;;;12.15;10.40;;;;;;;20.48;100.00;99677.38;5107705;28;20028;-65
2022/05/24 13:02:33;;;;;;;11.07;10.02;;;;;;;20.45;100.00;99675.84;5106962;28;20027;-68
2022/05/24 13:05:10;;;;;;;11.32;10.13;;;;;;;20.63;100.00;99665.91;5107701;28;20036;-67
2022/05/24 13:07:38;;;;;;;11.75;9.65;;;;;;;20.18;100.00;99618.44;5107941;28;20511;-69
2022/05/24 13:10:31;;;;;;;10.75;9.65;;;;;;;20.42;100.00;99650.22;5106589;28;20028;-65
2022/05/24 13:13:02;;;;;;;10.43;9.32;;;;;;;20.17;100.00;99683.06;5107050;28;20378;-66
2022/05/24 13:15:41;;;;;;;11.48;10.48;;;;;;;20.31;100.00;99685.53;5106739;28;20047;-67
2022/05/24 13:18:12;;;;;;;10.73;9.65;;;;;;;19.69;100.00;99646.94;5106975;28;20114;-66
2022/05/24 13:20:43;;;;;;;11.90;10.60;;;;;;;19.95;100.00;99636.53;5107798;28;20088;-66
2022/05/24 13:23:14;;;;;;;10.98;9.98;;;;;;;20.35;100.00;99687.78;5102977;28;20059;-67
2022/05/24 13:25:49;;;;;;;12.40;11.27;;;;;;;20.44;100.00;99697.44;5106156;28;20101;-67
2022/05/24 13:28:45;;;;;;;11.77;10.52;;;;;;;20.64;100.00;99701.13;5108829;28;20097;-68
2022/05/24 13:34:18;;;;;;;10.57;9.48;;;;;;;21.67;100.00;99726.91;5110225;28;20045;-67
2022/05/24 13:36:55;;;;;;;10.68;9.30;;;;;;;22.17;100.00;99732.38;5110952;28;20035;-77
2022/05/24 13:39:27;;;;;;;10.13;8.00;;;;;;;21.83;100.00;99691.97;5112611;28;20031;-75
2022/05/24 13:42:01;;;;;;;;;;;;;;;21.58;100.00;99728.44;5104662;28;20077;-76
2022/05/24 13:44:38;;;;;;;9.57;8.60;;;;;;;21.38;100.00;99711.03;5097521;28;20004;-75
2022/05/24 13:47:09;;;;;;;10.82;8.55;;;;;;;22.26;100.00;99726.47;5096302;28;20028;-75
2022/05/24 13:49:45;;;;;;;9.40;8.18;;;;;;;21.26;100.00;99728.31;5097175;28;20020;-76
2022/05/24 13:52:23;;;;;;;9.13;8.23;;;;;;;22.12;100.00;99723.34;5096098;28;20028;-74
2022/05/24 13:55:10;;;;;;;6.63;6.07;;;;;;;20.94;100.00;99678.19;5096054;28;20023;-75
2022/05/24 13:57:45;;;;;;;9.35;8.45;;;;;;;21.13;100.00;99694.00;5095865;28;20040;-76
2022/05/24 14:00:21;;;;;;;8.90;7.75;;;;;;;21.62;100.00;99753.16;5095964;28;20070;-75
2022/05/24 14:03:07;;;;;;;7.68;6.57;;;;;;;21.56;100.00;99761.38;5094530;28;20032;-74
2022/05/24 14:05:34;;;;;;;7.55;6.72;;;;;;;21.39;100.00;99741.97;5094181;28;20124;-74
2022/05/24 14:08:01;;;;;;;9.80;7.53;;;;;;;21.50;100.00;99770.44;5096082;28;20034;-75
2022/05/24 14:10:27;;;;;;;8.02;7.32;;;;;;;21.43;100.00;99761.47;5095548;28;20028;-75
2022/05/24 14:12:53;;;;;;;9.02;7.18;;;;;;;21.54;100.00;99742.56;5095719;28;20032;-75
2022/05/24 14:15:19;;;;;;;7.60;6.80;;;;;;;21.77;100.00;99764.91;5094357;28;20093;-75
2022/05/24 14:17:44;;;;;;;8.00;7.22;;;;;;;21.49;100.00;99766.19;5095950;28;20032;-76
2022/05/24 14:20:10;;;;;;;8.75;7.50;;;;;;;21.70;100.00;99774.09;5094348;28;20505;-74
2022/05/24 14:22:36;;;;;;;8.82;7.57;;;;;;;21.70;100.00;99743.03;5094299;28;20032;-74
2022/05/24 14:25:02;;;;;;;10.60;6.53;;;;;;;22.36;100.00;99742.91;5094352;28;20028;-74
2022/05/24 14:27:27;;;;;;;7.70;6.75;;;;;;;22.37;100.00;99786.03;5095205;28;20055;-73
2022/05/24 14:29:52;;;;;;;7.22;6.50;;;;;;;22.15;100.00;99775.72;5095961;28;20119;-74
2022/05/24 14:32:18;;;;;;;6.85;6.13;;;;;;;22.12;100.00;99738.88;5096984;28;20030;-72
2022/05/24 14:34:43;;;;;;;8.73;6.57;;;;;;;21.91;100.00;99769.84;5102447;28;20447;-70
2022/05/24 14:37:09;;;;;;;8.07;6.85;;;;;;;21.67;100.00;99768.34;5101882;28;20031;-75
2022/05/24 14:39:35;;;;;;;6.78;6.07;;;;;;;21.66;100.00;99723.50;5112073;28;20042;-72
2022/05/24 14:42:01;;;;;;;7.93;6.18;;;;;;;21.80;100.00;99764.66;5110402;28;20110;-72
2022/05/24 14:44:30;;;;;;;9.35;6.70;;;;;;;21.78;100.00;99760.56;5105915;28;20028;-79
2022/05/24 14:46:57;;;;;;;6.40;5.78;;;;;;;21.26;100.00;99754.19;5115708;28;20047;-75
2022/05/24 14:49:23;;;;;;;7.13;6.30;;;;;;;21.13;100.00;99721.63;5114221;28;20036;-74
2022/05/24 14:51:52;;;;;;;7.60;6.80;;;;;;;21.41;100.00;99758.19;5114631;28;20520;-75
2022/05/24 14:54:19;;;;;;;8.50;7.60;;;;;;;21.51;100.00;99758.34;5111675;28;20031;-75
2022/05/24 14:56:46;;;;;;;8.23;7.28;;;;;;;21.24;100.00;99776.75;5112630;28;20408;-74
2022/05/24 14:59:11;;;;;;;7.95;7.30;;;;;;;21.49;100.00;99762.81;5112897;28;20038;-74
2022/05/24 15:01:39;;;;;;;7.57;6.97;;;;;;;21.40;100.00;99766.06;5113042;28;20020;-74
2022/05/24 15:04:06;;;;;;;8.70;7.82;;;;;;;21.28;100.00;99751.47;5110826;28;20107;-75
2022/05/24 15:06:34;;;;;;;8.30;7.50;;;;;;;21.26;100.00;99749.00;5106200;28;20051;-76
2022/05/24 15:15:20;;;;;;;10.44;8.24;;;;;;;21.41;100.00;99752.22;5047297;28;10000763;-75
2022/05/24 15:17:35;;;;;;;8.70;7.90;;;;;;;21.39;100.00;99744.53;5113414;28;20037;-72
2022/05/24 15:20:13;;;;;;;8.43;7.43;;;;;;;21.70;100.00;99722.31;5111865;28;20035;-75
2022/05/24 15:22:43;;;;;;;7.57;6.90;;;;;;;21.25;100.00;99731.84;5111628;28;20043;-75
2022/05/24 15:25:12;;;;;;;8.30;7.13;;;;;;;21.31;100.00;99749.47;5111305;28;20038;-76
2022/05/24 15:27:38;;;;;;;9.02;7.32;;;;;;;21.32;100.00;99763.25;5112859;28;20115;-77
2022/05/24 15:30:08;;;;;;;8.43;7.65;;;;;;;21.43;100.00;99768.44;5112419;28;20442;-76
2022/05/24 15:32:33;;;;;;;8.77;7.68;;;;;;;21.33;100.00;99786.41;5111536;28;20039;-76
2022/05/24 15:34:58;;;;;;;9.63;8.73;;;;;;;21.31;100.00;99782.31;5112104;28;20024;-76
2022/05/24 15:37:24;;;;;;;15.05;11.18;;;;;;;21.12;100.00;99740.63;5111747;28;20028;-73
2022/05/24 15:39:49;;;;;;;23.00;12.25;;;;;;;20.81;100.00;99717.97;5112504;28;20074;-74
2022/05/24 15:42:15;;;;;;;13.07;11.23;;;;;;;20.97;100.00;99737.41;5112169;28;20036;-74
2022/05/24 15:44:40;;;;;;;12.98;10.98;;;;;;;20.90;100.00;99720.69;5111897;28;20024;-76
2022/05/24 15:47:06;;;;;;;12.90;10.15;;;;;;;21.10;100.00;99716.66;5109803;28;20420;-78
2022/05/24 15:49:32;;;;;;;14.38;11.02;;;;;;;20.97;100.00;99728.84;5109154;28;20038;-78
2022/05/24 15:51:57;;;;;;;11.30;10.20;;;;;;;21.19;100.00;99731.50;5110962;28;20493;-75
2022/05/24 15:54:23;;;;;;;13.95;11.10;;;;;;;21.91;100.00;99727.59;5109537;28;20023;-76
2022/05/24 15:56:49;;;;;;;11.68;9.80;;;;;;;21.51;100.00;99751.38;5109723;28;20531;-76
2022/05/24 15:59:14;;;;;;;10.18;9.25;;;;;;;21.33;100.00;99739.84;5107296;28;20027;-77
2022/05/24 16:01:40;;;;;;;11.63;10.52;;;;;;;21.26;100.00;99745.59;5107806;28;20022;-76
2022/05/24 16:04:05;;;;;;;9.77;8.88;;;;;;;21.00;100.00;99733.75;5109158;28;20134;-75
2022/05/24 16:10:02;;;;;;;10.10;9.25;;;;;;;21.18;100.00;99730.66;5109765;28;20092;-77
2022/05/24 16:12:01;;;;;;;10.32;9.23;;;;;;;20.92;100.00;99723.19;5109430;28;20038;-76
2022/05/24 16:14:32;;;;;;;11.25;10.35;;;;;;;20.90;100.00;99723.28;5112313;28;20023;-76
2022/05/24 16:16:59;;;;;;;11.02;9.95;;;;;;;20.82;100.00;99730.78;5111026;28;20043;-75
2022/05/24 16:19:28;;;;;;;13.20;11.90;;;;;;;21.06;100.00;99761.78;5111953;28;20036;-72
2022/05/24 16:21:53;;;;;;;15.93;14.40;;;;;;;21.01;100.00;99776.78;5109338;28;20489;-73
2022/05/24 16:24:19;;;;;;;28.85;17.90;;;;;;;20.43;100.00;99741.47;5109952;28;20033;-72
2022/05/24 16:26:45;;;;;;;17.67;14.23;;;;;;;20.94;100.00;99739.38;5110801;28;20489;-75
2022/05/24 16:29:11;;;;;;;29.77;17.52;;;;;;;20.80;100.00;99700.84;5110499;28;20024;-72
2022/05/24 16:31:36;;;;;;;18.85;13.73;;;;;;;20.77;100.00;99719.97;5108151;28;20027;-72
2022/05/24 16:34:02;;;;;;;23.77;19.80;;;;;;;21.21;100.00;99719.28;5109740;28;20027;-74
2022/05/24 16:36:29;;;;;;;17.52;15.30;;;;;;;20.99;100.00;99714.88;5109489;28;20039;-73
2022/05/24 16:39:01;;;;;;;16.40;14.60;;;;;;;20.86;100.00;99703.78;5110435;28;20027;-72
2022/05/24 16:41:28;;;;;;;18.55;16.52;;;;;;;20.96;100.00;99709.06;5109839;28;20039;-73
2022/05/24 16:43:54;;;;;;;17.27;15.50;;;;;;;21.04;100.00;99709.34;5109591;28;20659;-73
2022/05/24 16:46:19;;;;;;;15.05;13.23;;;;;;;21.05;100.00;99723.94;5110507;28;20063;-74
2022/05/24 16:48:45;;;;;;;12.93;11.77;;;;;;;20.96;100.00;99737.50;5110886;28;20100;-72
2022/05/24 16:51:22;;;;;;;16.27;14.57;;;;;;;20.83;100.00;99742.78;5109487;28;20527;-73
2022/05/24 16:53:58;;;;;;;19.13;16.92;;;;;;;21.02;100.00;99757.78;5110796;28;20031;-74
2022/05/24 16:59:11;;;;;;;18.15;16.08;;;;;;;21.00;100.00;99757.03;5111015;28;20054;-75
2022/05/24 17:01:37;;;;;;;19.70;17.88;;;;;;;20.70;100.00;99755.78;5110695;28;20055;-75
2022/05/24 17:04:04;;;;;;;18.55;16.65;;;;;;;20.58;100.00;99758.44;5099389;28;20148;-76
2022/05/24 17:06:29;;;;;;;24.33;20.73;;;;;;;20.51;100.00;99758.06;5106914;28;20035;-75
2022/05/24 17:08:54;;;;;;;22.75;18.45;;;;;;;20.18;100.00;99719.13;5112231;28;20097;-74
2022/05/24 17:11:21;;;;;;;23.25;20.65;;;;;;;20.36;100.00;99758.34;5092744;28;20021;-77
2022/05/24 17:13:49;;;;;;;23.65;21.25;;;;;;;20.59;100.00;99745.41;5091518;28;20032;-77
2022/05/24 17:16:15;;;;;;;23.42;21.00;;;;;;;20.45;100.00;99743.00;5091404;28;20863;-78
2022/05/24 17:18:41;;;;;;;28.35;23.00;;;;;;;20.56;100.00;99753.38;5095327;28;20047;-79
2022/05/24 17:21:09;;;;;;;19.73;17.92;;;;;;;20.40;100.00;99727.00;5095721;28;20168;-76
2022/05/24 17:23:35;;;;;;;18.83;16.98;;;;;;;20.64;100.00;99748.47;5110275;28;20024;-80
2022/05/24 17:26:00;;;;;;;21.23;19.02;;;;;;;20.57;100.00;99728.38;5116893;28;20466;-75
2022/05/24 17:28:26;;;;;;;23.50;19.90;;;;;;;20.58;100.00;99733.41;5115472;28;20038;-74
2022/05/24 17:30:51;;;;;;;25.90;23.40;;;;;;;20.39;100.00;99709.03;5115902;28;20113;-76
2022/05/24 17:33:27;;;;;;;23.30;21.00;;;;;;;20.40;100.00;99736.53;5116989;28;20027;-77
2022/05/24 17:35:53;;;;;;;22.70;20.25;;;;;;;20.34;100.00;99711.13;5117442;28;20030;-77
2022/05/24 17:38:19;;;;;;;23.52;21.23;;;;;;;20.26;100.00;99750.44;5117469;28;20019;-77
2022/05/24 17:40:51;;;;;;;23.33;21.00;;;;;;;20.39;100.00;99737.44;5117185;28;20030;-77
2022/05/24 17:43:19;;;;;;;22.65;20.60;;;;;;;20.44;100.00;99736.16;5117529;27;20555;-79
2022/05/24 17:45:46;;;;;;;22.92;20.70;;;;;;;20.28;100.00;99712.38;5116908;28;20027;-77
2022/05/24 17:48:14;;;;;;;26.60;23.08;;;;;;;20.34;100.00;99736.97;5116971;28;20024;-76
2022/05/24 17:50:40;;;;;;;27.65;24.80;;;;;;;20.22;100.00;99718.00;5115729;28;20035;-82
2022/05/24 17:53:07;;;;;;;27.80;24.95;;;;;;;20.21;100.00;99723.25;5116614;28;20500;-78
2022/05/24 17:55:35;;;;;;;25.98;23.42;;;;;;;20.26;100.00;99755.59;5102545;28;20040;-77
2022/05/24 17:58:02;;;;;;;23.35;21.25;;;;;;;20.27;100.00;99762.41;5108978;28;20040;-76
2022/05/24 18:00:27;;;;;;;27.77;25.08;;;;;;;19.87;100.00;99719.63;4756228;28;9999739;-74
2022/05/24 18:02:53;;;;;;;28.17;25.65;;;;;;;20.03;100.00;99724.53;5113733;28;20061;-74
2022/05/24 18:05:18;;;;;;;27.90;25.58;;;;;;;19.96;100.00;99742.22;5116099;28;20031;-74
2022/05/24 18:07:43;;;;;;;25.45;23.10;;;;;;;19.75;100.00;99712.75;5104341;28;20032;-73
2022/05/24 18:10:10;;;;;;;24.10;21.93;;;;;;;19.73;100.00;99714.63;4751409;22;10001299;-70
2022/05/24 18:12:38;;;;;;;26.23;23.75;;;;;;;19.72;100.00;99747.34;5004866;28;20035;-69
2022/05/24 18:15:07;;;;;;;26.85;24.55;;;;;;;20.02;100.00;99753.88;5002671;28;20484;-69
2022/05/24 18:17:33;;;;;;;24.90;22.65;;;;;;;19.80;100.00;99755.38;4999327;28;20455;-69
2022/05/24 18:19:58;;;;;;;21.98;20.08;;;;;;;19.50;100.00;99721.38;4997704;28;20121;-68
2022/05/24 18:22:28;;;;;;;20.02;18.13;;;;;;;19.82;100.00;99766.44;4990119;28;20117;-69
2022/05/24 18:25:04;;;;;;;22.13;20.10;;;;;;;19.70;100.00;99756.94;4993811;28;20030;-69
2022/05/24 18:33:11;;;;;;;18.30;16.50;;;;;;;19.29;100.00;99763.25;5010954;28;20095;-70
2022/05/24 18:35:52;;;;;;;19.10;17.30;;;;;;;19.63;100.00;99786.66;5009748;28;20033;-70
2022/05/24 18:38:18;;;;;;;19.20;17.40;;;;;;;19.35;100.00;99757.69;4990776;28;20080;-71
2022/05/24 18:40:44;;;;;;;17.60;15.75;;;;;;;19.60;100.00;99791.22;4990419;28;20038;-70
2022/05/24 18:43:10;;;;;;;18.85;17.13;;;;;;;19.52;100.00;99778.00;4990515;28;20048;-69
2022/05/24 18:45:38;;;;;;;17.90;16.40;;;;;;;19.17;100.00;99756.31;4990537;28;20037;-70
2022/05/24 18:48:06;;;;;;;14.98;13.57;;;;;;;19.14;100.00;99764.25;4989795;28;20121;-71
2022/05/24 18:50:32;;;;;;;17.40;12.90;;;;;;;19.03;100.00;99793.31;4990487;28;20030;-69
2022/05/24 18:52:58;;;;;;;10.52;9.52;;;;;;;18.41;100.00;99781.03;4972389;28;20034;-69
2022/05/24 18:55:23;;;;;;;10.30;9.30;;;;;;;18.65;100.00;99807.84;4990037;28;20027;-72
2022/05/24 18:57:49;;;;;;;11.45;8.05;;;;;;;18.43;100.00;99798.06;4990674;28;20030;-69
2022/05/24 19:00:15;;;;;;;10.32;8.55;;;;;;;18.48;100.00;99782.34;4993459;28;20038;-70
2022/05/24 19:02:40;;;;;;;11.02;9.30;;;;;;;18.55;100.00;99804.19;5005642;28;20037;-69
2022/05/24 19:05:07;;;;;;;10.57;9.38;;;;;;;18.25;100.00;99770.03;4991565;28;20041;-69
2022/05/24 19:07:34;;;;;;;11.30;10.20;;;;;;;18.33;100.00;99753.22;4993959;28;20400;-70
2022/05/24 19:10:01;;;;;;;13.80;10.57;;;;;;;18.25;100.00;99796.63;4991893;28;20054;-69
2022/05/24 19:12:28;;;;;;;25.35;22.80;;;;;;;18.03;100.00;99784.25;5008829;28;20044;-69
2022/05/24 19:14:54;;;;;;;32.78;29.85;;;;;;;17.83;100.00;99778.66;5009147;28;20068;-69
2022/05/24 19:17:22;;;;;;;43.25;38.85;;;;;;;18.23;100.00;99810.50;5009496;28;20038;-70
2022/05/24 19:19:47;;;;;;;50.58;45.15;;;;;;;17.67;100.00;99760.78;4998140;28;20027;-69
2022/05/24 19:22:16;;;;;;;50.08;44.83;;;;;;;17.95;100.00;99806.22;4971264;28;20040;-69
2022/05/24 19:24:42;;;;;;;78.55;70.93;;;;;;;18.01;100.00;99813.56;4989338;28;20030;-70
2022/05/24 19:27:10;;;;;;;63.60;57.60;;;;;;;17.48;100.00;99785.91;4997204;28;20061;-69
2022/05/24 19:29:38;;;;;;;54.35;49.40;;;;;;;17.73;100.00;99803.28;5008261;28;20096;-69
2022/05/24 19:32:04;;;;;;;44.53;40.35;;;;;;;17.35;100.00;99790.13;5008449;28;20054;-69
2022/05/24 19:34:33;;;;;;;33.58;30.45;;;;;;;17.65;100.00;99797.81;4998776;28;20375;-69
2022/05/24 19:37:04;;;;;;;35.65;31.92;;;;;;;17.76;100.00;99816.81;5006962;28;20488;-70
2022/05/24 19:42:13;;;;;;;13.35;11.23;;;;;;;17.89;100.00;99814.31;5008367;28;20498;-70
2022/05/24 19:44:39;;;;;;;16.40;13.05;;;;;;;17.67;100.00;99809.63;4990149;28;20038;-70
2022/05/24 19:47:05;;;;;;;20.27;18.15;;;;;;;17.45;100.00;99808.41;4979086;28;20087;-70
2022/05/24 19:49:34;;;;;;;22.52;20.27;;;;;;;17.30;100.00;99785.25;5008130;28;20184;-69
2022/05/24 19:52:02;;;;;;;41.78;38.08;;;;;;;17.70;100.00;99806.88;5009615;28;20052;-69
2022/05/24 19:54:27;;;;;;;53.92;48.85;;;;;;;17.74;100.00;99823.78;5007978;28;20535;-68
2022/05/24 19:56:55;;;;;;;48.03;43.53;;;;;;;17.41;100.00;99768.38;5007575;28;20116;-69
2022/05/24 19:59:21;;;;;;;60.70;54.70;;;;;;;17.66;100.00;99804.59;5007415;28;20040;-70
2022/05/24 20:01:46;;;;;;;34.78;31.20;;;;;;;17.23;100.00;99789.06;5007925;28;20041;-70
2022/05/24 20:04:12;;;;;;;25.30;20.65;;;;;;;17.40;100.00;99820.69;5007896;28;20026;-69
2022/05/24 20:06:37;;;;;;;27.02;19.38;;;;;;;17.23;100.00;99835.31;5007873;28;20042;-69
2022/05/24 20:09:03;;;;;;;13.15;10.00;;;;;;;16.87;100.00;99842.56;5005179;28;20116;-69
2022/05/24 20:11:31;;;;;;;10.88;8.07;;;;;;;16.93;100.00;99813.97;5005920;28;20512;-69
2022/05/24 20:13:58;;;;;;;11.82;7.30;;;;;;;16.78;100.00;99850.78;5003445;28;20034;-68
2022/05/24 20:16:23;;;;;;;9.77;6.90;;;;;;;16.84;100.00;99813.66;4991387;28;20484;-69
2022/05/24 20:18:49;;;;;;;8.80;6.63;;;;;;;16.71;100.00;99828.09;4991655;28;20035;-68
2022/05/24 20:21:14;;;;;;;10.38;6.40;;;;;;;16.63;100.00;99831.09;4991696;28;20113;-69
2022/05/24 20:23:39;;;;;;;8.82;6.50;;;;;;;16.74;100.00;99851.03;4991923;28;20026;-69
2022/05/24 20:26:05;;;;;;;7.70;6.00;;;;;;;16.80;100.00;99866.91;4991301;28;20377;-69
2022/05/24 20:28:31;;;;;;;9.23;6.43;;;;;;;16.19;100.00;99823.19;4991728;28;20037;-69
2022/05/24 20:30:56;;;;;;;8.20;6.60;;;;;;;16.36;100.00;99876.19;4990185;28;20504;-69
2022/05/24 20:33:22;;;;;;;8.55;6.00;;;;;;;16.84;100.00;99872.72;4991262;28;20506;-69
2022/05/24 20:35:47;;;;;;;6.35;5.75;;;;;;;16.93;100.00;99867.09;4991247;28;20444;-69
2022/05/24 20:38:12;;;;;;;10.13;5.93;;;;;;;16.65;100.00;99865.22;4991201;28;20034;-69
2022/05/24 20:40:39;;;;;;;10.43;5.55;;;;;;;16.42;100.00;99871.53;4990752;28;20030;-69
2022/05/24 20:43:05;;;;;;;6.05;5.20;;;;;;;16.32;100.00;99859.31;4991392;28;20046;-69
2022/05/24 20:45:31;;;;;;;6.88;5.18;;;;;;;16.52;100.00;99865.97;4989732;28;20038;-69
2022/05/24 20:47:56;;;;;;;7.53;4.75;;;;;;;16.76;100.00;99893.69;4973480;28;20036;-69
2022/05/24 20:50:24;;;;;;;9.15;5.20;;;;;;;16.51;100.00;99910.47;4991290;28;20053;-68
2022/05/24 20:52:50;;;;;;;7.28;5.28;;;;;;;16.29;100.00;99885.09;4990867;28;20036;-69
2022/05/24 20:55:16;;;;;;;7.35;4.90;;;;;;;16.19;100.00;99883.94;4989284;28;20132;-69
2022/05/24 20:57:42;;;;;;;6.68;5.07;;;;;;;16.13;100.00;99897.91;4991075;28;20488;-69
2022/05/24 21:00:08;;;;;;;7.78;5.47;;;;;;;16.16;100.00;99878.97;4990931;28;20089;-69
2022/05/24 21:02:34;;;;;;;7.80;5.88;;;;;;;16.38;100.00;99892.34;4991041;28;20031;-69
2022/05/24 21:04:59;;;;;;;6.35;5.75;;;;;;;16.78;100.00;99921.81;4990892;28;20108;-69
2022/05/24 21:07:25;;;;;;;10.70;6.17;;;;;;;16.68;100.00;99902.72;4990730;28;20495;-70
2022/05/24 21:09:51;;;;;;;9.77;6.45;;;;;;;16.65;100.00;99898.56;4990759;28;20289;-68
2022/05/24 21:12:20;;;;;;;7.30;6.38;;;;;;;16.28;100.00;99893.72;4990850;28;20039;-69